sensor_id;sensor_type;location;lat;lon;timestamp;P1;durP1;ratioP1;P2;durP2;ratioP2
18580;SDS011;9420;50.876;7.012;2023-11-19T00:02:14;0.97;;;0.60;;
18580;SDS011;9420;50.876;7.012;2023-11-19T00:04:41;0.70;;;0.40;;
18580;SDS011;9420;50.876;7.012;2023-11-19T00:07:09;1.30;;;0.47;;
18580;SDS011;9420;50.876;7.012;2023-11-19T00:09:38;1.00;;;0.53;;
18580;SDS011;9420;50.876;7.012;2023-11-19T00:12:05;2.37;;;0.57;;
18580;SDS011;9420;50.876;7.012;2023-11-19T00:14:32;0.30;;;0.20;;
18580;SDS011;9420;50.876;7.012;2023-11-19T00:16:59;3.50;;;0.80;;
18580;SDS011;9420;50.876;7.012;2023-11-19T00:19:26;1.33;;;0.70;;
18580;SDS011;9420;50.876;7.012;2023-11-19T00:21:53;0.53;;;0.47;;
18580;SDS011;9420;50.876;7.012;2023-11-19T00:24:21;2.00;;;0.50;;
18580;SDS011;9420;50.876;7.012;2023-11-19T00:26:47;1.13;;;0.60;;
18580;SDS011;9420;50.876;7.012;2023-11-19T00:29:14;2.43;;;0.50;;
18580;SDS011;9420;50.876;7.012;2023-11-19T00:31:41;1.80;;;0.50;;
18580;SDS011;9420;50.876;7.012;2023-11-19T00:34:07;2.00;;;0.40;;
18580;SDS011;9420;50.876;7.012;2023-11-19T00:36:34;0.77;;;0.40;;
18580;SDS011;9420;50.876;7.012;2023-11-19T00:39:00;0.43;;;0.20;;
18580;SDS011;9420;50.876;7.012;2023-11-19T00:41:29;1.17;;;0.60;;
18580;SDS011;9420;50.876;7.012;2023-11-19T00:43:55;0.30;;;0.30;;
18580;SDS011;9420;50.876;7.012;2023-11-19T00:46:22;0.53;;;0.47;;
18580;SDS011;9420;50.876;7.012;2023-11-19T00:48:48;1.37;;;0.40;;
18580;SDS011;9420;50.876;7.012;2023-11-19T00:51:15;0.50;;;0.33;;
18580;SDS011;9420;50.876;7.012;2023-11-19T00:53:42;0.87;;;0.30;;
18580;SDS011;9420;50.876;7.012;2023-11-19T00:56:10;1.60;;;0.50;;
18580;SDS011;9420;50.876;7.012;2023-11-19T00:58:39;1.50;;;0.37;;
18580;SDS011;9420;50.876;7.012;2023-11-19T01:01:05;2.90;;;0.63;;
18580;SDS011;9420;50.876;7.012;2023-11-19T01:03:32;0.63;;;0.40;;
18580;SDS011;9420;50.876;7.012;2023-11-19T01:05:59;0.30;;;0.30;;
18580;SDS011;9420;50.876;7.012;2023-11-19T01:08:27;1.53;;;0.43;;
18580;SDS011;9420;50.876;7.012;2023-11-19T01:10:54;1.97;;;0.40;;
18580;SDS011;9420;50.876;7.012;2023-11-19T01:13:20;0.33;;;0.27;;
18580;SDS011;9420;50.876;7.012;2023-11-19T01:15:48;0.67;;;0.60;;
18580;SDS011;9420;50.876;7.012;2023-11-19T01:18:16;2.80;;;0.60;;
18580;SDS011;9420;50.876;7.012;2023-11-19T01:20:42;0.93;;;0.50;;
18580;SDS011;9420;50.876;7.012;2023-11-19T01:23:09;1.60;;;0.50;;
18580;SDS011;9420;50.876;7.012;2023-11-19T01:25:35;0.73;;;0.40;;
18580;SDS011;9420;50.876;7.012;2023-11-19T01:28:03;0.80;;;0.20;;
18580;SDS011;9420;50.876;7.012;2023-11-19T01:30:30;0.50;;;0.30;;
18580;SDS011;9420;50.876;7.012;2023-11-19T01:32:58;0.40;;;0.30;;
18580;SDS011;9420;50.876;7.012;2023-11-19T01:35:25;2.80;;;0.43;;
18580;SDS011;9420;50.876;7.012;2023-11-19T01:37:53;1.37;;;0.40;;
18580;SDS011;9420;50.876;7.012;2023-11-19T01:40:20;0.63;;;0.30;;
18580;SDS011;9420;50.876;7.012;2023-11-19T01:42:47;0.60;;;0.30;;
18580;SDS011;9420;50.876;7.012;2023-11-19T01:45:20;1.17;;;0.20;;
18580;SDS011;9420;50.876;7.012;2023-11-19T01:47:52;0.70;;;0.70;;
18580;SDS011;9420;50.876;7.012;2023-11-19T01:50:21;0.10;;;0.10;;
18580;SDS011;9420;50.876;7.012;2023-11-19T01:52:49;0.57;;;0.30;;
18580;SDS011;9420;50.876;7.012;2023-11-19T01:55:17;0.30;;;0.30;;
18580;SDS011;9420;50.876;7.012;2023-11-19T01:57:43;0.30;;;0.20;;
18580;SDS011;9420;50.876;7.012;2023-11-19T02:00:09;0.73;;;0.40;;
18580;SDS011;9420;50.876;7.012;2023-11-19T02:02:38;1.03;;;0.30;;
18580;SDS011;9420;50.876;7.012;2023-11-19T02:05:05;1.00;;;0.37;;
18580;SDS011;9420;50.876;7.012;2023-11-19T02:07:33;2.23;;;0.53;;
18580;SDS011;9420;50.876;7.012;2023-11-19T02:10:00;3.80;;;0.70;;
18580;SDS011;9420;50.876;7.012;2023-11-19T02:12:28;1.73;;;0.77;;
18580;SDS011;9420;50.876;7.012;2023-11-19T02:14:54;2.80;;;0.50;;
18580;SDS011;9420;50.876;7.012;2023-11-19T02:17:25;2.57;;;0.90;;
18580;SDS011;9420;50.876;7.012;2023-11-19T02:19:52;4.10;;;1.20;;
18580;SDS011;9420;50.876;7.012;2023-11-19T02:22:18;6.90;;;1.10;;
18580;SDS011;9420;50.876;7.012;2023-11-19T02:24:46;2.53;;;1.00;;
18580;SDS011;9420;50.876;7.012;2023-11-19T02:27:16;4.37;;;1.17;;
18580;SDS011;9420;50.876;7.012;2023-11-19T02:29:53;6.60;;;1.10;;
18580;SDS011;9420;50.876;7.012;2023-11-19T02:32:19;12.57;;;1.57;;
18580;SDS011;9420;50.876;7.012;2023-11-19T02:34:46;4.83;;;1.10;;
18580;SDS011;9420;50.876;7.012;2023-11-19T02:37:14;4.17;;;1.30;;
18580;SDS011;9420;50.876;7.012;2023-11-19T02:39:40;6.17;;;1.27;;
18580;SDS011;9420;50.876;7.012;2023-11-19T02:42:07;4.00;;;0.70;;
18580;SDS011;9420;50.876;7.012;2023-11-19T02:44:35;2.47;;;0.60;;
18580;SDS011;9420;50.876;7.012;2023-11-19T02:47:04;2.40;;;0.57;;
18580;SDS011;9420;50.876;7.012;2023-11-19T02:49:33;4.83;;;0.73;;
18580;SDS011;9420;50.876;7.012;2023-11-19T02:51:59;1.13;;;0.33;;
18580;SDS011;9420;50.876;7.012;2023-11-19T02:54:26;1.50;;;0.37;;
18580;SDS011;9420;50.876;7.012;2023-11-19T02:56:53;1.00;;;0.40;;
18580;SDS011;9420;50.876;7.012;2023-11-19T02:59:24;5.73;;;0.50;;
18580;SDS011;9420;50.876;7.012;2023-11-19T03:01:57;1.20;;;0.60;;
18580;SDS011;9420;50.876;7.012;2023-11-19T03:04:26;0.97;;;0.40;;
18580;SDS011;9420;50.876;7.012;2023-11-19T03:06:53;3.50;;;0.60;;
18580;SDS011;9420;50.876;7.012;2023-11-19T03:09:20;0.47;;;0.40;;
18580;SDS011;9420;50.876;7.012;2023-11-19T03:11:47;2.90;;;0.70;;
18580;SDS011;9420;50.876;7.012;2023-11-19T03:14:14;2.90;;;0.73;;
18580;SDS011;9420;50.876;7.012;2023-11-19T03:16:43;4.93;;;1.33;;
18580;SDS011;9420;50.876;7.012;2023-11-19T03:19:11;7.13;;;1.70;;
18580;SDS011;9420;50.876;7.012;2023-11-19T03:21:39;9.03;;;2.27;;
18580;SDS011;9420;50.876;7.012;2023-11-19T03:24:06;12.33;;;2.63;;
18580;SDS011;9420;50.876;7.012;2023-11-19T03:26:33;14.53;;;2.27;;
18580;SDS011;9420;50.876;7.012;2023-11-19T03:29:00;16.20;;;2.53;;
18580;SDS011;9420;50.876;7.012;2023-11-19T03:31:27;11.17;;;2.30;;
18580;SDS011;9420;50.876;7.012;2023-11-19T03:33:53;13.73;;;2.10;;
18580;SDS011;9420;50.876;7.012;2023-11-19T03:36:20;12.27;;;1.87;;
18580;SDS011;9420;50.876;7.012;2023-11-19T03:38:48;7.30;;;1.77;;
18580;SDS011;9420;50.876;7.012;2023-11-19T03:41:15;7.70;;;1.87;;
18580;SDS011;9420;50.876;7.012;2023-11-19T03:43:42;7.93;;;2.07;;
18580;SDS011;9420;50.876;7.012;2023-11-19T03:46:18;12.63;;;2.03;;
18580;SDS011;9420;50.876;7.012;2023-11-19T03:48:45;10.47;;;1.97;;
18580;SDS011;9420;50.876;7.012;2023-11-19T03:51:12;12.83;;;2.53;;
18580;SDS011;9420;50.876;7.012;2023-11-19T03:53:40;10.43;;;2.50;;
18580;SDS011;9420;50.876;7.012;2023-11-19T03:56:09;9.57;;;2.37;;
18580;SDS011;9420;50.876;7.012;2023-11-19T03:58:36;7.23;;;1.67;;
18580;SDS011;9420;50.876;7.012;2023-11-19T04:01:03;9.70;;;1.67;;
18580;SDS011;9420;50.876;7.012;2023-11-19T04:03:30;12.20;;;2.33;;
18580;SDS011;9420;50.876;7.012;2023-11-19T04:05:57;13.20;;;1.90;;
18580;SDS011;9420;50.876;7.012;2023-11-19T04:08:24;10.77;;;2.10;;
18580;SDS011;9420;50.876;7.012;2023-11-19T04:10:50;12.77;;;2.70;;
18580;SDS011;9420;50.876;7.012;2023-11-19T04:13:21;4.53;;;1.67;;
18580;SDS011;9420;50.876;7.012;2023-11-19T04:15:49;7.27;;;1.90;;
18580;SDS011;9420;50.876;7.012;2023-11-19T04:18:16;11.30;;;2.47;;
18580;SDS011;9420;50.876;7.012;2023-11-19T04:20:43;9.33;;;1.80;;
18580;SDS011;9420;50.876;7.012;2023-11-19T04:23:09;11.37;;;2.07;;
18580;SDS011;9420;50.876;7.012;2023-11-19T04:25:36;8.50;;;2.73;;
18580;SDS011;9420;50.876;7.012;2023-11-19T04:28:03;8.17;;;1.83;;
18580;SDS011;9420;50.876;7.012;2023-11-19T04:30:31;10.20;;;2.27;;
18580;SDS011;9420;50.876;7.012;2023-11-19T04:32:58;15.63;;;2.37;;
18580;SDS011;9420;50.876;7.012;2023-11-19T04:35:24;7.90;;;2.50;;
18580;SDS011;9420;50.876;7.012;2023-11-19T04:37:51;18.00;;;2.67;;
18580;SDS011;9420;50.876;7.012;2023-11-19T04:40:18;7.53;;;2.83;;
18580;SDS011;9420;50.876;7.012;2023-11-19T04:42:47;9.27;;;2.00;;
18580;SDS011;9420;50.876;7.012;2023-11-19T04:45:14;12.93;;;2.97;;
18580;SDS011;9420;50.876;7.012;2023-11-19T04:47:43;12.37;;;2.30;;
18580;SDS011;9420;50.876;7.012;2023-11-19T04:50:09;11.30;;;1.90;;
18580;SDS011;9420;50.876;7.012;2023-11-19T04:52:37;12.17;;;1.90;;
18580;SDS011;9420;50.876;7.012;2023-11-19T04:55:05;4.03;;;1.50;;
18580;SDS011;9420;50.876;7.012;2023-11-19T04:57:32;6.40;;;2.20;;
18580;SDS011;9420;50.876;7.012;2023-11-19T04:59:59;9.57;;;2.10;;
18580;SDS011;9420;50.876;7.012;2023-11-19T05:02:25;7.37;;;2.00;;
18580;SDS011;9420;50.876;7.012;2023-11-19T05:04:53;12.77;;;1.97;;
18580;SDS011;9420;50.876;7.012;2023-11-19T05:07:20;17.07;;;2.27;;
18580;SDS011;9420;50.876;7.012;2023-11-19T05:09:46;9.77;;;1.90;;
18580;SDS011;9420;50.876;7.012;2023-11-19T05:12:13;8.63;;;2.10;;
18580;SDS011;9420;50.876;7.012;2023-11-19T05:14:40;10.60;;;1.90;;
18580;SDS011;9420;50.876;7.012;2023-11-19T05:17:13;11.03;;;1.80;;
18580;SDS011;9420;50.876;7.012;2023-11-19T05:19:39;7.30;;;1.93;;
18580;SDS011;9420;50.876;7.012;2023-11-19T05:22:07;13.83;;;2.17;;
18580;SDS011;9420;50.876;7.012;2023-11-19T05:24:34;11.80;;;3.00;;
18580;SDS011;9420;50.876;7.012;2023-11-19T05:27:00;14.57;;;2.70;;
18580;SDS011;9420;50.876;7.012;2023-11-19T05:29:27;15.83;;;2.57;;
18580;SDS011;9420;50.876;7.012;2023-11-19T05:31:54;10.97;;;2.97;;
18580;SDS011;9420;50.876;7.012;2023-11-19T05:34:21;13.67;;;2.67;;
18580;SDS011;9420;50.876;7.012;2023-11-19T05:36:47;14.93;;;2.30;;
18580;SDS011;9420;50.876;7.012;2023-11-19T05:39:16;13.70;;;3.20;;
18580;SDS011;9420;50.876;7.012;2023-11-19T05:41:43;8.83;;;2.80;;
18580;SDS011;9420;50.876;7.012;2023-11-19T05:44:10;17.13;;;2.97;;
18580;SDS011;9420;50.876;7.012;2023-11-19T05:46:37;17.33;;;3.27;;
18580;SDS011;9420;50.876;7.012;2023-11-19T05:49:07;10.77;;;2.80;;
18580;SDS011;9420;50.876;7.012;2023-11-19T05:51:36;16.07;;;3.60;;
18580;SDS011;9420;50.876;7.012;2023-11-19T05:54:03;13.20;;;2.10;;
18580;SDS011;9420;50.876;7.012;2023-11-19T05:56:33;11.40;;;2.57;;
18580;SDS011;9420;50.876;7.012;2023-11-19T05:59:00;12.87;;;3.20;;
18580;SDS011;9420;50.876;7.012;2023-11-19T06:01:28;18.83;;;3.50;;
18580;SDS011;9420;50.876;7.012;2023-11-19T06:03:55;20.43;;;3.07;;
18580;SDS011;9420;50.876;7.012;2023-11-19T06:06:21;21.20;;;4.13;;
18580;SDS011;9420;50.876;7.012;2023-11-19T06:08:49;22.77;;;3.70;;
18580;SDS011;9420;50.876;7.012;2023-11-19T06:11:15;21.90;;;4.03;;
18580;SDS011;9420;50.876;7.012;2023-11-19T06:13:47;15.20;;;2.97;;
18580;SDS011;9420;50.876;7.012;2023-11-19T06:16:16;18.20;;;3.00;;
18580;SDS011;9420;50.876;7.012;2023-11-19T06:18:42;10.93;;;2.97;;
18580;SDS011;9420;50.876;7.012;2023-11-19T06:21:09;14.23;;;2.70;;
18580;SDS011;9420;50.876;7.012;2023-11-19T06:23:36;25.67;;;4.07;;
18580;SDS011;9420;50.876;7.012;2023-11-19T06:26:03;21.10;;;3.37;;
18580;SDS011;9420;50.876;7.012;2023-11-19T06:28:30;24.07;;;3.67;;
18580;SDS011;9420;50.876;7.012;2023-11-19T06:30:58;13.90;;;3.50;;
18580;SDS011;9420;50.876;7.012;2023-11-19T06:33:24;18.57;;;3.27;;
18580;SDS011;9420;50.876;7.012;2023-11-19T06:35:52;25.50;;;4.53;;
18580;SDS011;9420;50.876;7.012;2023-11-19T06:38:19;16.17;;;3.60;;
18580;SDS011;9420;50.876;7.012;2023-11-19T06:40:46;17.20;;;4.07;;
18580;SDS011;9420;50.876;7.012;2023-11-19T06:43:13;23.17;;;3.97;;
18580;SDS011;9420;50.876;7.012;2023-11-19T06:45:40;21.63;;;5.03;;
18580;SDS011;9420;50.876;7.012;2023-11-19T06:48:08;25.57;;;4.73;;
18580;SDS011;9420;50.876;7.012;2023-11-19T06:50:35;18.10;;;4.33;;
18580;SDS011;9420;50.876;7.012;2023-11-19T06:53:02;20.93;;;4.10;;
18580;SDS011;9420;50.876;7.012;2023-11-19T06:55:31;21.93;;;4.00;;
18580;SDS011;9420;50.876;7.012;2023-11-19T06:57:59;17.37;;;3.80;;
18580;SDS011;9420;50.876;7.012;2023-11-19T07:00:27;15.37;;;3.93;;
18580;SDS011;9420;50.876;7.012;2023-11-19T07:02:54;14.67;;;3.37;;
18580;SDS011;9420;50.876;7.012;2023-11-19T07:05:22;20.83;;;3.83;;
18580;SDS011;9420;50.876;7.012;2023-11-19T07:07:49;19.10;;;3.67;;
18580;SDS011;9420;50.876;7.012;2023-11-19T07:10:15;22.07;;;4.10;;
18580;SDS011;9420;50.876;7.012;2023-11-19T07:12:42;17.63;;;4.43;;
18580;SDS011;9420;50.876;7.012;2023-11-19T07:15:10;19.30;;;3.50;;
18580;SDS011;9420;50.876;7.012;2023-11-19T07:17:38;16.67;;;2.97;;
18580;SDS011;9420;50.876;7.012;2023-11-19T07:20:06;22.93;;;3.83;;
18580;SDS011;9420;50.876;7.012;2023-11-19T07:22:34;19.33;;;3.27;;
18580;SDS011;9420;50.876;7.012;2023-11-19T07:25:03;18.83;;;3.73;;
18580;SDS011;9420;50.876;7.012;2023-11-19T07:27:30;11.80;;;3.47;;
18580;SDS011;9420;50.876;7.012;2023-11-19T07:29:57;23.47;;;3.47;;
18580;SDS011;9420;50.876;7.012;2023-11-19T07:32:24;22.40;;;4.23;;
18580;SDS011;9420;50.876;7.012;2023-11-19T07:34:50;11.17;;;3.00;;
18580;SDS011;9420;50.876;7.012;2023-11-19T07:37:17;23.30;;;4.27;;
18580;SDS011;9420;50.876;7.012;2023-11-19T07:39:45;26.27;;;4.30;;
18580;SDS011;9420;50.876;7.012;2023-11-19T07:42:11;27.43;;;4.33;;
18580;SDS011;9420;50.876;7.012;2023-11-19T07:44:38;17.10;;;4.50;;
18580;SDS011;9420;50.876;7.012;2023-11-19T07:47:04;25.67;;;3.60;;
18580;SDS011;9420;50.876;7.012;2023-11-19T07:49:31;21.97;;;4.00;;
18580;SDS011;9420;50.876;7.012;2023-11-19T07:51:58;27.00;;;4.40;;
18580;SDS011;9420;50.876;7.012;2023-11-19T07:54:25;25.67;;;3.87;;
18580;SDS011;9420;50.876;7.012;2023-11-19T07:56:53;21.77;;;4.10;;
18580;SDS011;9420;50.876;7.012;2023-11-19T07:59:19;18.60;;;3.93;;
18580;SDS011;9420;50.876;7.012;2023-11-19T08:01:46;17.03;;;3.73;;
18580;SDS011;9420;50.876;7.012;2023-11-19T08:04:13;22.27;;;3.80;;
18580;SDS011;9420;50.876;7.012;2023-11-19T08:06:39;21.40;;;4.00;;
18580;SDS011;9420;50.876;7.012;2023-11-19T08:09:06;21.80;;;4.33;;
18580;SDS011;9420;50.876;7.012;2023-11-19T08:11:38;16.43;;;4.20;;
18580;SDS011;9420;50.876;7.012;2023-11-19T08:14:06;22.53;;;3.37;;
18580;SDS011;9420;50.876;7.012;2023-11-19T08:16:33;17.43;;;3.83;;
18580;SDS011;9420;50.876;7.012;2023-11-19T08:19:00;20.53;;;4.53;;
18580;SDS011;9420;50.876;7.012;2023-11-19T08:21:26;14.07;;;3.33;;
18580;SDS011;9420;50.876;7.012;2023-11-19T08:23:53;22.13;;;4.10;;
18580;SDS011;9420;50.876;7.012;2023-11-19T08:26:19;21.50;;;3.50;;
18580;SDS011;9420;50.876;7.012;2023-11-19T08:28:46;17.27;;;3.67;;
18580;SDS011;9420;50.876;7.012;2023-11-19T08:31:14;26.07;;;4.37;;
18580;SDS011;9420;50.876;7.012;2023-11-19T08:33:41;20.87;;;4.10;;
18580;SDS011;9420;50.876;7.012;2023-11-19T08:36:07;19.50;;;4.37;;
18580;SDS011;9420;50.876;7.012;2023-11-19T08:38:34;19.17;;;3.37;;
18580;SDS011;9420;50.876;7.012;2023-11-19T08:41:01;16.50;;;4.07;;
18580;SDS011;9420;50.876;7.012;2023-11-19T08:43:27;22.17;;;3.40;;
18580;SDS011;9420;50.876;7.012;2023-11-19T08:45:56;19.07;;;3.00;;
18580;SDS011;9420;50.876;7.012;2023-11-19T08:48:24;16.53;;;3.87;;
18580;SDS011;9420;50.876;7.012;2023-11-19T08:50:51;22.13;;;4.70;;
18580;SDS011;9420;50.876;7.012;2023-11-19T08:53:17;24.43;;;4.00;;
18580;SDS011;9420;50.876;7.012;2023-11-19T08:55:44;22.67;;;4.33;;
18580;SDS011;9420;50.876;7.012;2023-11-19T08:58:11;22.87;;;4.27;;
18580;SDS011;9420;50.876;7.012;2023-11-19T09:00:38;19.80;;;5.23;;
18580;SDS011;9420;50.876;7.012;2023-11-19T09:03:04;27.23;;;4.07;;
18580;SDS011;9420;50.876;7.012;2023-11-19T09:05:32;17.83;;;4.10;;
18580;SDS011;9420;50.876;7.012;2023-11-19T09:07:59;22.30;;;3.80;;
18580;SDS011;9420;50.876;7.012;2023-11-19T09:10:25;21.87;;;4.80;;
18580;SDS011;9420;50.876;7.012;2023-11-19T09:12:52;24.23;;;4.33;;
18580;SDS011;9420;50.876;7.012;2023-11-19T09:15:19;18.87;;;3.83;;
18580;SDS011;9420;50.876;7.012;2023-11-19T09:17:45;16.40;;;3.20;;
18580;SDS011;9420;50.876;7.012;2023-11-19T09:20:12;21.93;;;3.63;;
18580;SDS011;9420;50.876;7.012;2023-11-19T09:22:41;28.20;;;4.43;;
18580;SDS011;9420;50.876;7.012;2023-11-19T09:25:08;25.80;;;3.90;;
18580;SDS011;9420;50.876;7.012;2023-11-19T09:27:35;16.20;;;3.23;;
18580;SDS011;9420;50.876;7.012;2023-11-19T09:30:02;24.33;;;3.83;;
18580;SDS011;9420;50.876;7.012;2023-11-19T09:32:29;20.90;;;3.93;;
18580;SDS011;9420;50.876;7.012;2023-11-19T09:34:56;20.17;;;4.80;;
18580;SDS011;9420;50.876;7.012;2023-11-19T09:37:22;27.17;;;4.23;;
18580;SDS011;9420;50.876;7.012;2023-11-19T09:39:50;19.37;;;4.80;;
18580;SDS011;9420;50.876;7.012;2023-11-19T09:42:18;22.20;;;4.20;;
18580;SDS011;9420;50.876;7.012;2023-11-19T09:44:45;28.23;;;3.67;;
18580;SDS011;9420;50.876;7.012;2023-11-19T09:47:13;30.93;;;5.73;;
18580;SDS011;9420;50.876;7.012;2023-11-19T09:49:40;13.70;;;3.57;;
18580;SDS011;9420;50.876;7.012;2023-11-19T09:52:07;22.17;;;4.30;;
18580;SDS011;9420;50.876;7.012;2023-11-19T09:54:34;22.60;;;5.00;;
18580;SDS011;9420;50.876;7.012;2023-11-19T09:57:02;19.10;;;4.20;;
18580;SDS011;9420;50.876;7.012;2023-11-19T09:59:31;21.43;;;4.37;;
18580;SDS011;9420;50.876;7.012;2023-11-19T10:01:58;16.07;;;3.63;;
18580;SDS011;9420;50.876;7.012;2023-11-19T10:04:25;19.80;;;3.83;;
18580;SDS011;9420;50.876;7.012;2023-11-19T10:06:56;15.57;;;3.90;;
18580;SDS011;9420;50.876;7.012;2023-11-19T10:09:22;19.00;;;3.30;;
18580;SDS011;9420;50.876;7.012;2023-11-19T10:11:49;14.37;;;3.50;;
18580;SDS011;9420;50.876;7.012;2023-11-19T10:14:17;19.57;;;4.07;;
18580;SDS011;9420;50.876;7.012;2023-11-19T10:16:45;20.47;;;5.60;;
18580;SDS011;9420;50.876;7.012;2023-11-19T10:19:12;21.93;;;4.53;;
18580;SDS011;9420;50.876;7.012;2023-11-19T10:21:45;16.70;;;4.10;;
18580;SDS011;9420;50.876;7.012;2023-11-19T10:24:12;23.93;;;4.60;;
18580;SDS011;9420;50.876;7.012;2023-11-19T10:26:39;20.43;;;4.50;;
18580;SDS011;9420;50.876;7.012;2023-11-19T10:29:07;17.87;;;4.17;;
18580;SDS011;9420;50.876;7.012;2023-11-19T10:31:35;18.93;;;3.77;;
18580;SDS011;9420;50.876;7.012;2023-11-19T10:34:01;20.27;;;4.23;;
18580;SDS011;9420;50.876;7.012;2023-11-19T10:36:38;15.30;;;3.13;;
18580;SDS011;9420;50.876;7.012;2023-11-19T10:39:06;19.00;;;5.03;;
18580;SDS011;9420;50.876;7.012;2023-11-19T10:41:34;16.23;;;3.97;;
18580;SDS011;9420;50.876;7.012;2023-11-19T10:44:00;19.40;;;3.57;;
18580;SDS011;9420;50.876;7.012;2023-11-19T10:46:38;15.27;;;4.93;;
18580;SDS011;9420;50.876;7.012;2023-11-19T10:49:06;24.57;;;4.07;;
18580;SDS011;9420;50.876;7.012;2023-11-19T10:51:32;18.80;;;4.50;;
18580;SDS011;9420;50.876;7.012;2023-11-19T10:54:01;22.10;;;4.00;;
18580;SDS011;9420;50.876;7.012;2023-11-19T10:56:31;19.20;;;3.97;;
18580;SDS011;9420;50.876;7.012;2023-11-19T10:58:58;16.90;;;4.68;;
18580;SDS011;9420;50.876;7.012;2023-11-19T11:01:26;22.90;;;4.30;;
18580;SDS011;9420;50.876;7.012;2023-11-19T11:03:59;15.80;;;3.40;;
18580;SDS011;9420;50.876;7.012;2023-11-19T11:06:27;26.00;;;3.73;;
18580;SDS011;9420;50.876;7.012;2023-11-19T11:08:54;11.87;;;3.20;;
18580;SDS011;9420;50.876;7.012;2023-11-19T11:11:21;19.87;;;3.53;;
18580;SDS011;9420;50.876;7.012;2023-11-19T11:13:48;20.23;;;4.07;;
18580;SDS011;9420;50.876;7.012;2023-11-19T11:16:16;17.37;;;3.60;;
18580;SDS011;9420;50.876;7.012;2023-11-19T11:18:45;15.37;;;2.83;;
18580;SDS011;9420;50.876;7.012;2023-11-19T11:21:16;13.97;;;3.50;;
18580;SDS011;9420;50.876;7.012;2023-11-19T11:23:57;27.23;;;4.47;;
18580;SDS011;9420;50.876;7.012;2023-11-19T11:29:41;21.43;;;3.93;;
18580;SDS011;9420;50.876;7.012;2023-11-19T11:32:21;17.73;;;3.10;;
18580;SDS011;9420;50.876;7.012;2023-11-19T11:35:03;17.20;;;3.67;;
18580;SDS011;9420;50.876;7.012;2023-11-19T11:37:44;24.10;;;4.07;;
18580;SDS011;9420;50.876;7.012;2023-11-19T11:40:14;18.20;;;3.50;;
18580;SDS011;9420;50.876;7.012;2023-11-19T11:42:41;19.07;;;4.40;;
18580;SDS011;9420;50.876;7.012;2023-11-19T11:45:08;16.37;;;4.90;;
18580;SDS011;9420;50.876;7.012;2023-11-19T11:50:35;14.73;;;2.43;;
18580;SDS011;9420;50.876;7.012;2023-11-19T11:53:15;18.07;;;2.77;;
18580;SDS011;9420;50.876;7.012;2023-11-19T11:55:52;16.03;;;2.97;;
18580;SDS011;9420;50.876;7.012;2023-11-19T11:58:28;11.53;;;2.20;;
18580;SDS011;9420;50.876;7.012;2023-11-19T12:00:57;9.60;;;2.43;;
18580;SDS011;9420;50.876;7.012;2023-11-19T12:03:26;13.90;;;2.40;;
18580;SDS011;9420;50.876;7.012;2023-11-19T12:05:53;11.17;;;2.33;;
18580;SDS011;9420;50.876;7.012;2023-11-19T12:08:24;17.97;;;3.10;;
18580;SDS011;9420;50.876;7.012;2023-11-19T12:10:53;9.50;;;2.53;;
18580;SDS011;9420;50.876;7.012;2023-11-19T12:13:22;17.47;;;2.47;;
18580;SDS011;9420;50.876;7.012;2023-11-19T12:16:08;17.73;;;3.77;;
18580;SDS011;9420;50.876;7.012;2023-11-19T12:18:35;13.37;;;2.03;;
18580;SDS011;9420;50.876;7.012;2023-11-19T12:21:04;16.33;;;3.00;;
18580;SDS011;9420;50.876;7.012;2023-11-19T12:23:35;11.63;;;3.00;;
18580;SDS011;9420;50.876;7.012;2023-11-19T12:26:20;15.03;;;3.67;;
18580;SDS011;9420;50.876;7.012;2023-11-19T12:28:59;10.50;;;2.17;;
18580;SDS011;9420;50.876;7.012;2023-11-19T12:31:28;9.33;;;2.00;;
18580;SDS011;9420;50.876;7.012;2023-11-19T12:33:55;15.73;;;2.80;;
18580;SDS011;9420;50.876;7.012;2023-11-19T12:36:22;16.83;;;3.13;;
18580;SDS011;9420;50.876;7.012;2023-11-19T12:38:50;12.13;;;2.53;;
18580;SDS011;9420;50.876;7.012;2023-11-19T12:41:17;14.20;;;2.97;;
18580;SDS011;9420;50.876;7.012;2023-11-19T12:43:47;14.03;;;2.73;;
18580;SDS011;9420;50.876;7.012;2023-11-19T12:46:17;11.03;;;3.50;;
18580;SDS011;9420;50.876;7.012;2023-11-19T12:48:44;13.30;;;2.80;;
18580;SDS011;9420;50.876;7.012;2023-11-19T12:51:11;13.90;;;2.60;;
18580;SDS011;9420;50.876;7.012;2023-11-19T12:53:46;12.53;;;3.13;;
18580;SDS011;9420;50.876;7.012;2023-11-19T12:56:16;15.67;;;3.40;;
18580;SDS011;9420;50.876;7.012;2023-11-19T12:58:42;11.60;;;2.80;;
18580;SDS011;9420;50.876;7.012;2023-11-19T13:01:09;11.50;;;2.47;;
18580;SDS011;9420;50.876;7.012;2023-11-19T13:03:36;15.43;;;2.70;;
18580;SDS011;9420;50.876;7.012;2023-11-19T13:06:04;8.40;;;1.87;;
18580;SDS011;9420;50.876;7.012;2023-11-19T13:08:36;6.83;;;2.27;;
18580;SDS011;9420;50.876;7.012;2023-11-19T13:11:04;11.17;;;2.03;;
18580;SDS011;9420;50.876;7.012;2023-11-19T13:13:33;10.80;;;2.20;;
18580;SDS011;9420;50.876;7.012;2023-11-19T13:16:19;12.33;;;2.60;;
18580;SDS011;9420;50.876;7.012;2023-11-19T13:18:46;13.90;;;3.10;;
18580;SDS011;9420;50.876;7.012;2023-11-19T13:21:12;11.03;;;2.13;;
18580;SDS011;9420;50.876;7.012;2023-11-19T13:23:39;14.63;;;2.93;;
18580;SDS011;9420;50.876;7.012;2023-11-19T13:26:06;14.43;;;2.97;;
18580;SDS011;9420;50.876;7.012;2023-11-19T13:28:34;15.60;;;3.23;;
18580;SDS011;9420;50.876;7.012;2023-11-19T13:31:00;17.63;;;2.43;;
18580;SDS011;9420;50.876;7.012;2023-11-19T13:33:27;14.30;;;3.47;;
18580;SDS011;9420;50.876;7.012;2023-11-19T13:35:54;13.27;;;3.30;;
18580;SDS011;9420;50.876;7.012;2023-11-19T13:38:21;15.13;;;2.53;;
18580;SDS011;9420;50.876;7.012;2023-11-19T13:40:48;17.80;;;3.37;;
18580;SDS011;9420;50.876;7.012;2023-11-19T13:43:14;13.27;;;3.07;;
18580;SDS011;9420;50.876;7.012;2023-11-19T13:45:42;17.23;;;3.03;;
18580;SDS011;9420;50.876;7.012;2023-11-19T13:48:09;7.90;;;2.43;;
18580;SDS011;9420;50.876;7.012;2023-11-19T13:50:35;12.50;;;3.53;;
18580;SDS011;9420;50.876;7.012;2023-11-19T13:53:02;17.27;;;3.33;;
18580;SDS011;9420;50.876;7.012;2023-11-19T13:55:29;12.90;;;3.30;;
18580;SDS011;9420;50.876;7.012;2023-11-19T13:57:56;12.93;;;2.50;;
18580;SDS011;9420;50.876;7.012;2023-11-19T14:00:23;10.83;;;2.47;;
18580;SDS011;9420;50.876;7.012;2023-11-19T14:02:51;17.67;;;3.00;;
18580;SDS011;9420;50.876;7.012;2023-11-19T14:05:18;10.57;;;3.00;;
18580;SDS011;9420;50.876;7.012;2023-11-19T14:07:45;22.80;;;4.70;;
18580;SDS011;9420;50.876;7.012;2023-11-19T14:10:13;12.93;;;3.07;;
18580;SDS011;9420;50.876;7.012;2023-11-19T14:12:40;16.40;;;4.93;;
18580;SDS011;9420;50.876;7.012;2023-11-19T14:15:08;20.50;;;2.83;;
18580;SDS011;9420;50.876;7.012;2023-11-19T14:17:37;19.57;;;4.63;;
18580;SDS011;9420;50.876;7.012;2023-11-19T14:20:06;15.67;;;3.23;;
18580;SDS011;9420;50.876;7.012;2023-11-19T14:22:37;14.93;;;2.47;;
18580;SDS011;9420;50.876;7.012;2023-11-19T14:25:04;10.33;;;2.97;;
18580;SDS011;9420;50.876;7.012;2023-11-19T14:27:35;14.83;;;2.90;;
18580;SDS011;9420;50.876;7.012;2023-11-19T14:30:01;11.20;;;3.33;;
18580;SDS011;9420;50.876;7.012;2023-11-19T14:32:28;17.53;;;3.40;;
18580;SDS011;9420;50.876;7.012;2023-11-19T14:34:55;16.20;;;3.57;;
18580;SDS011;9420;50.876;7.012;2023-11-19T14:37:23;11.33;;;2.53;;
18580;SDS011;9420;50.876;7.012;2023-11-19T14:39:49;11.43;;;2.47;;
18580;SDS011;9420;50.876;7.012;2023-11-19T14:42:16;14.93;;;3.67;;
18580;SDS011;9420;50.876;7.012;2023-11-19T14:44:43;13.67;;;3.20;;
18580;SDS011;9420;50.876;7.012;2023-11-19T14:47:10;14.33;;;2.60;;
18580;SDS011;9420;50.876;7.012;2023-11-19T14:49:36;16.33;;;2.93;;
18580;SDS011;9420;50.876;7.012;2023-11-19T14:52:03;13.40;;;2.50;;
18580;SDS011;9420;50.876;7.012;2023-11-19T14:54:31;15.17;;;3.40;;
18580;SDS011;9420;50.876;7.012;2023-11-19T14:56:58;14.93;;;3.30;;
18580;SDS011;9420;50.876;7.012;2023-11-19T14:59:25;15.67;;;3.50;;
18580;SDS011;9420;50.876;7.012;2023-11-19T15:01:52;21.60;;;3.60;;
18580;SDS011;9420;50.876;7.012;2023-11-19T15:04:18;14.20;;;3.73;;